Time;durP1;ratioP1;P1;durP2;ratioP2;P2;SDS_P1;SDS_P2;PMS_P1;PMS_P2;Temp;Humidity;BMP_temperature;BMP_pressure;BME280_temperature;BME280_humidity;BME280_pressure;Samples;Min_cycle;Max_cycle;Signal;HPM_P1;HPM_P2
2023/10/14 00:02:20;;;;;;;14.02;4.07;;;13.60;95.80;;;;;;4998917;28;20030;-74
2023/10/14 00:04:46;;;;;;;17.17;3.47;;;13.70;95.80;;;;;;5008480;28;20053;-74
2023/10/14 00:07:17;;;;;;;19.17;4.55;;;13.60;95.60;;;;;;5022356;28;20113;-71
2023/10/14 00:09:43;;;;;;;16.60;4.55;;;13.60;95.40;;;;;;5028758;28;20156;-73
2023/10/14 00:12:13;;;;;;;16.63;4.00;;;13.60;95.50;;;;;;5030484;28;20053;-74
2023/10/14 00:14:48;;;;;;;17.70;4.07;;;13.60;95.60;;;;;;5026287;28;21394;-77
2023/10/14 00:17:18;;;;;;;14.90;4.20;;;13.60;95.60;;;;;;5024292;28;20026;-72
2023/10/14 00:19:49;;;;;;;16.13;3.90;;;13.50;95.50;;;;;;5023790;28;20040;-74
2023/10/14 00:22:17;;;;;;;14.40;4.18;;;13.50;95.40;;;;;;5034516;28;20033;-76
2023/10/14 00:24:43;;;;;;;21.83;4.90;;;13.50;95.60;;;;;;5031522;28;20044;-74
2023/10/14 00:27:09;;;;;;;20.52;4.22;;;13.50;95.30;;;;;;5021603;28;20025;-74
2023/10/14 00:29:35;;;;;;;20.27;4.00;;;13.60;95.30;;;;;;5035108;28;20112;-76
2023/10/14 00:32:03;;;;;;;18.70;4.18;;;13.50;95.30;;;;;;5027192;28;20048;-72
2023/10/14 00:34:29;;;;;;;21.48;5.15;;;13.50;95.30;;;;;;5027864;28;20025;-71
2023/10/14 00:36:56;;;;;;;18.80;4.63;;;13.50;95.10;;;;;;5034811;28;20471;-75
2023/10/14 00:39:28;;;;;;;17.55;3.83;;;13.50;95.10;;;;;;5034934;28;20036;-76
2023/10/14 00:41:55;;;;;;;19.88;3.83;;;13.50;95.00;;;;;;5022554;28;20113;-73
2023/10/14 00:44:26;;;;;;;17.33;4.55;;;13.40;94.90;;;;;;5025071;28;20092;-75
2023/10/14 00:46:52;;;;;;;17.92;3.85;;;13.40;94.90;;;;;;5017667;28;20110;-73
2023/10/14 00:49:42;;;;;;;14.20;4.60;;;13.50;94.90;;;;;;5030130;28;20107;-74
2023/10/14 00:52:09;;;;;;;14.95;4.00;;;13.40;94.70;;;;;;5026551;28;20611;-75
2023/10/14 00:59:51;;;;;;;12.82;4.25;;;13.20;94.70;;;;;;5021716;28;20067;-72
2023/10/14 01:02:29;;;;;;;17.40;4.60;;;13.10;94.90;;;;;;5028869;28;20446;-74
2023/10/14 01:04:56;;;;;;;17.67;4.40;;;13.10;94.70;;;;;;5020701;28;20096;-72
2023/10/14 01:07:22;;;;;;;22.23;4.35;;;13.10;95.00;;;;;;5020076;28;20390;-73
2023/10/14 01:15:04;;;;;;;20.48;4.85;;;13.00;94.50;;;;;;5026396;28;20044;-76
2023/10/14 01:17:30;;;;;;;13.63;3.58;;;12.90;94.10;;;;;;5021713;28;20539;-76
2023/10/14 01:20:11;;;;;;;15.25;3.38;;;12.80;93.80;;;;;;5028358;28;20100;-73
2023/10/14 01:22:38;;;;;;;13.50;3.95;;;12.70;93.50;;;;;;5030135;28;20108;-74
2023/10/14 01:25:06;;;;;;;17.30;3.92;;;12.70;93.00;;;;;;5024690;28;20084;-74
2023/10/14 01:27:34;;;;;;;11.55;3.83;;;12.60;92.90;;;;;;5027257;28;20025;-74
2023/10/14 01:29:59;;;;;;;15.93;4.10;;;12.60;92.70;;;;;;5026959;28;20109;-72
2023/10/14 01:35:24;;;;;;;14.45;3.40;;;12.50;92.10;;;;;;5026645;28;20041;-72
2023/10/14 01:37:51;;;;;;;15.73;3.42;;;12.40;92.30;;;;;;5025645;28;20014;-73
2023/10/14 01:40:27;;;;;;;16.02;3.90;;;12.40;92.20;;;;;;5024949;28;20033;-73
2023/10/14 01:42:57;;;;;;;15.30;3.90;;;12.30;91.90;;;;;;5031229;28;20037;-73
2023/10/14 01:45:31;;;;;;;14.85;3.30;;;12.30;91.60;;;;;;5015598;28;20128;-76
2023/10/14 01:50:54;;;;;;;12.35;3.17;;;12.10;91.20;;;;;;5020744;28;20124;-76
2023/10/14 01:53:27;;;;;;;12.65;3.03;;;12.10;91.30;;;;;;5027997;28;20079;-73
2023/10/14 01:55:55;;;;;;;16.83;3.92;;;12.10;91.30;;;;;;5023717;28;20041;-75
2023/10/14 01:58:22;;;;;;;17.92;3.80;;;12.00;91.50;;;;;;5025193;28;20108;-72
2023/10/14 02:00:53;;;;;;;14.68;3.33;;;12.00;91.50;;;;;;5027853;28;20498;-77
2023/10/14 02:03:23;;;;;;;12.18;3.28;;;11.90;91.70;;;;;;5022649;28;20542;-74
2023/10/14 02:05:52;;;;;;;17.10;3.60;;;11.90;91.60;;;;;;5019865;28;20551;-72
2023/10/14 02:08:22;;;;;;;9.90;2.95;;;11.80;91.40;;;;;;5021398;28;21366;-75
2023/10/14 02:10:53;;;;;;;20.70;3.88;;;11.80;91.40;;;;;;5022967;28;20056;-75
2023/10/14 02:13:21;;;;;;;13.77;3.85;;;11.70;91.20;;;;;;5024083;28;20264;-74
2023/10/14 02:15:47;;;;;;;17.00;3.85;;;11.60;91.40;;;;;;5023949;28;20137;-74
2023/10/14 02:18:20;;;;;;;19.20;3.45;;;11.60;91.50;;;;;;5028014;28;20029;-77
2023/10/14 02:21:11;;;;;;;19.08;3.38;;;11.60;91.60;;;;;;5022536;28;20049;-74
2023/10/14 02:23:45;;;;;;;13.27;3.58;;;11.60;91.60;;;;;;5033294;28;20025;-75
2023/10/14 02:26:33;;;;;;;15.85;3.70;;;11.50;91.40;;;;;;5034011;28;20043;-76
2023/10/14 02:28:59;;;;;;;11.38;2.45;;;11.50;91.40;;;;;;5028716;28;20025;-77
2023/10/14 02:31:29;;;;;;;13.38;3.28;;;11.50;91.40;;;;;;5026196;28;20128;-73
2023/10/14 02:34:06;;;;;;;15.55;3.78;;;11.50;91.30;;;;;;5024732;28;20037;-73
2023/10/14 02:36:40;;;;;;;12.43;3.40;;;11.50;91.10;;;;;;5029014;28;20029;-73
2023/10/14 02:39:14;;;;;;;16.20;3.17;;;11.40;91.00;;;;;;5020897;28;20030;-72
2023/10/14 02:41:43;;;;;;;14.57;3.38;;;11.40;91.10;;;;;;5025159;28;20040;-76
2023/10/14 02:46:45;;;;;;;22.85;3.85;;;11.40;91.00;;;;;;5022908;28;20045;-75
2023/10/14 02:49:14;;;;;;;15.85;3.30;;;11.30;90.90;;;;;;5020857;28;20026;-73
2023/10/14 02:51:44;;;;;;;16.40;3.05;;;11.40;90.80;;;;;;5025309;28;20120;-75
2023/10/14 02:54:33;;;;;;;13.27;3.20;;;11.40;90.80;;;;;;5022735;28;20079;-72
2023/10/14 02:57:00;;;;;;;15.65;3.20;;;11.40;91.00;;;;;;5017647;28;20081;-73
2023/10/14 03:07:36;;;;;;;11.90;2.67;;;11.30;91.40;;;;;;5017901;28;20034;-75
2023/10/14 03:12:48;;;;;;;13.15;3.20;;;11.30;91.50;;;;;;5016276;28;20137;-80
2023/10/14 03:15:19;;;;;;;16.10;3.70;;;11.30;91.50;;;;;;5019962;28;20083;-73
2023/10/14 03:18:07;;;;;;;11.82;3.60;;;11.30;91.70;;;;;;5014650;28;20029;-75
2023/10/14 03:20:36;;;;;;;16.90;4.72;;;11.30;91.70;;;;;;5006974;28;20068;-76
2023/10/14 03:23:11;;;;;;;15.73;5.63;;;11.30;91.70;;;;;;5001250;28;20029;-72
2023/10/14 03:25:38;;;;;;;17.40;7.22;;;11.30;91.50;;;;;;4997750;28;20696;-73
2023/10/14 03:30:37;;;;;;;12.88;4.80;;;11.30;91.60;;;;;;4988769;28;20523;-75
2023/10/14 03:33:10;;;;;;;15.85;4.95;;;11.30;91.70;;;;;;4994842;28;20489;-74
2023/10/14 03:35:37;;;;;;;16.52;5.00;;;11.30;91.70;;;;;;4995122;28;20109;-73
2023/10/14 03:38:14;;;;;;;16.75;4.15;;;11.30;91.60;;;;;;5000237;28;20033;-72
2023/10/14 03:43:15;;;;;;;16.13;3.40;;;11.30;91.70;;;;;;4999795;28;20049;-76
2023/10/14 03:48:35;;;;;;;14.95;3.50;;;11.20;91.90;;;;;;4993708;28;20104;-77
2023/10/14 03:51:04;;;;;;;13.95;3.40;;;11.20;92.00;;;;;;5001902;28;20057;-73
2023/10/14 03:53:31;;;;;;;13.77;3.40;;;11.20;92.10;;;;;;4990798;28;20511;-74
2023/10/14 03:56:00;;;;;;;16.83;3.10;;;11.10;91.90;;;;;;5000108;28;20038;-74
2023/10/14 03:58:29;;;;;;;15.68;3.53;;;11.20;92.20;;;;;;4996532;28;20507;-76
2023/10/14 04:00:57;;;;;;;12.52;3.20;;;11.10;92.00;;;;;;4997368;28;20041;-73
2023/10/14 04:03:41;;;;;;;13.55;3.00;;;11.10;92.00;;;;;;4994287;28;20026;-74
2023/10/14 04:06:14;;;;;;;12.63;2.90;;;11.10;92.00;;;;;;4995784;28;20034;-75
2023/10/14 04:08:46;;;;;;;15.20;3.22;;;11.10;92.10;;;;;;4998948;28;20375;-73
2023/10/14 04:11:15;;;;;;;16.70;3.30;;;11.10;92.10;;;;;;4998590;28;20037;-74
2023/10/14 04:14:34;;;;;;;13.65;3.60;;;11.10;92.10;;;;;;4999336;28;20026;-77
2023/10/14 04:16:49;;;;;;;16.83;3.33;;;11.10;91.90;;;;;;4999065;28;20040;-74
2023/10/14 04:20:14;;;;;;;9.52;2.45;;;11.10;92.00;;;;;;5009253;28;20025;-74
2023/10/14 04:22:25;;;;;;;14.88;3.92;;;11.00;92.00;;;;;;4991477;28;20058;-74
2023/10/14 04:24:53;;;;;;;17.00;4.10;;;11.00;91.90;;;;;;4999542;28;20297;-74
2023/10/14 04:27:30;;;;;;;17.23;4.90;;;11.00;91.70;;;;;;4996599;28;20019;-76
2023/10/14 04:30:21;;;;;;;13.77;4.65;;;11.00;91.70;;;;;;4999453;28;20491;-76
2023/10/14 04:32:48;;;;;;;12.18;5.05;;;11.00;91.90;;;;;;4996516;28;20077;-74
2023/10/14 04:35:19;;;;;;;13.20;4.88;;;10.90;92.00;;;;;;5001230;28;20045;-75
2023/10/14 04:37:51;;;;;;;12.25;3.45;;;10.90;92.00;;;;;;5001043;28;20037;-74
2023/10/14 04:48:35;;;;;;;15.90;4.00;;;10.80;92.30;;;;;;4996290;28;20507;-74
2023/10/14 04:51:09;;;;;;;13.50;3.80;;;10.70;92.50;;;;;;5002814;28;20030;-78
2023/10/14 04:53:36;;;;;;;14.80;4.55;;;10.70;92.80;;;;;;5000190;28;20045;-75
2023/10/14 04:56:08;;;;;;;14.45;4.70;;;10.60;92.90;;;;;;5003017;28;20046;-76
2023/10/14 04:58:34;;;;;;;18.85;5.07;;;10.60;93.00;;;;;;4995642;28;20034;-74
2023/10/14 05:01:08;;;;;;;16.73;4.20;;;10.60;93.10;;;;;;5003821;28;20049;-73
2023/10/14 05:03:33;;;;;;;17.63;4.95;;;10.60;93.10;;;;;;4993562;28;20071;-73
2023/10/14 05:08:54;;;;;;;15.75;4.35;;;10.60;93.30;;;;;;4997935;28;20499;-75
2023/10/14 05:11:18;;;;;;;12.20;3.72;;;10.50;93.20;;;;;;4993003;28;20956;-73
2023/10/14 05:16:29;;;;;;;10.80;3.15;;;10.50;93.40;;;;;;4999855;28;20057;-73
2023/10/14 05:19:06;;;;;;;15.93;3.88;;;10.50;93.50;;;;;;4997910;28;20025;-75
2023/10/14 05:21:36;;;;;;;15.70;4.03;;;10.50;93.60;;;;;;4996920;28;20086;-75
2023/10/14 05:24:03;;;;;;;16.17;4.00;;;10.50;93.70;;;;;;4998719;28;20092;-75
2023/10/14 05:26:35;;;;;;;12.00;3.58;;;10.50;93.70;;;;;;4999303;28;20080;-74
2023/10/14 05:29:11;;;;;;;14.20;4.30;;;10.40;93.80;;;;;;4992007;28;20033;-72
2023/10/14 05:31:37;;;;;;;16.55;4.00;;;10.40;93.80;;;;;;5000655;28;20095;-75
2023/10/14 05:34:04;;;;;;;18.73;4.30;;;10.40;93.90;;;;;;4993101;28;20037;-73
2023/10/14 05:36:32;;;;;;;13.02;3.92;;;10.40;94.00;;;;;;4998286;28;20041;-72
2023/10/14 05:38:57;;;;;;;15.75;4.43;;;10.50;94.10;;;;;;4994814;28;20846;-75
2023/10/14 05:41:23;;;;;;;19.20;4.32;;;10.40;94.20;;;;;;5001331;28;20046;-73
2023/10/14 05:43:51;;;;;;;17.10;3.88;;;10.40;94.10;;;;;;4992737;28;20045;-76
2023/10/14 05:46:16;;;;;;;11.38;3.75;;;10.40;94.20;;;;;;5001004;28;20030;-76
2023/10/14 05:48:42;;;;;;;17.58;3.60;;;10.40;94.20;;;;;;4999558;28;20036;-77
2023/10/14 05:51:08;;;;;;;12.23;3.72;;;10.40;94.20;;;;;;5003008;28;20049;-74
2023/10/14 05:53:33;;;;;;;13.85;3.80;;;10.40;94.20;;;;;;5000596;28;20425;-73
2023/10/14 05:56:14;;;;;;;15.10;4.03;;;10.40;94.40;;;;;;4996317;28;20073;-73
2023/10/14 05:58:40;;;;;;;15.48;3.60;;;10.40;94.40;;;;;;4999076;28;20140;-74
2023/10/14 06:01:10;;;;;;;15.60;4.10;;;10.30;94.30;;;;;;5001529;28;20459;-73
2023/10/14 06:03:37;;;;;;;16.80;3.97;;;10.30;94.50;;;;;;4997497;28;20264;-75
2023/10/14 06:06:09;;;;;;;14.07;4.47;;;10.30;94.50;;;;;;4997278;28;20104;-76
2023/10/14 06:08:40;;;;;;;20.42;4.97;;;10.30;94.60;;;;;;4996500;28;20060;-76
2023/10/14 06:11:05;;;;;;;16.52;3.90;;;10.30;94.50;;;;;;4997180;28;20046;-77
2023/10/14 06:13:35;;;;;;;13.35;3.85;;;10.30;94.40;;;;;;5002484;28;20384;-75
2023/10/14 06:16:09;;;;;;;13.98;3.67;;;10.20;94.40;;;;;;5000357;28;20049;-74
2023/10/14 06:18:38;;;;;;;17.15;3.80;;;10.30;94.40;;;;;;5002626;28;20026;-73
2023/10/14 06:21:06;;;;;;;16.05;4.35;;;10.30;94.30;;;;;;5000361;28;20535;-78
2023/10/14 06:23:32;;;;;;;18.40;4.00;;;10.30;94.10;;;;;;4999094;28;20053;-73
2023/10/14 06:25:58;;;;;;;18.08;3.58;;;10.20;94.10;;;;;;4995100;28;20575;-71
2023/10/14 06:28:25;;;;;;;15.10;3.42;;;10.20;94.00;;;;;;4997691;28;20362;-73
2023/10/14 06:30:51;;;;;;;13.25;3.90;;;10.20;93.90;;;;;;4997919;28;20038;-72
2023/10/14 06:33:17;;;;;;;18.25;3.80;;;10.20;93.80;;;;;;4998449;28;20026;-72
2023/10/14 06:35:42;;;;;;;12.07;3.28;;;10.20;93.80;;;;;;4999403;28;20038;-76
2023/10/14 06:38:09;;;;;;;17.48;3.83;;;10.20;93.80;;;;;;4992942;28;20022;-74
2023/10/14 06:40:36;;;;;;;14.02;3.33;;;10.30;93.70;;;;;;4994590;28;20042;-74
2023/10/14 06:43:12;;;;;;;17.00;3.75;;;10.30;93.80;;;;;;4999658;28;20069;-72
2023/10/14 06:45:38;;;;;;;12.68;3.53;;;10.30;93.70;;;;;;4996505;28;20053;-74
2023/10/14 06:48:09;;;;;;;15.43;4.10;;;10.40;93.60;;;;;;4989135;28;20076;-73
2023/10/14 06:50:42;;;;;;;16.80;4.32;;;10.40;93.40;;;;;;4999812;28;20030;-73
2023/10/14 06:53:08;;;;;;;12.93;3.65;;;10.40;93.30;;;;;;5000256;28;20054;-75
2023/10/14 06:55:39;;;;;;;15.27;3.63;;;10.40;93.30;;;;;;4994293;28;20145;-72
2023/10/14 06:58:12;;;;;;;13.80;3.60;;;10.50;93.20;;;;;;4994698;28;20058;-72
2023/10/14 07:00:40;;;;;;;14.60;3.78;;;10.50;93.10;;;;;;5010832;28;20412;-73
2023/10/14 07:03:12;;;;;;;13.50;3.35;;;10.60;93.00;;;;;;4999781;28;20069;-77
2023/10/14 07:05:56;;;;;;;16.70;4.05;;;10.60;93.00;;;;;;4999686;28;20045;-71
2023/10/14 07:08:24;;;;;;;16.27;4.68;;;10.60;93.00;;;;;;4998055;28;20022;-74
2023/10/14 07:10:50;;;;;;;13.23;3.60;;;10.60;93.00;;;;;;4994774;28;20048;-71
2023/10/14 07:13:23;;;;;;;19.98;5.72;;;10.60;92.90;;;;;;4999785;28;20024;-71
2023/10/14 07:15:51;;;;;;;14.23;4.30;;;10.70;92.90;;;;;;4995608;28;20041;-71
2023/10/14 07:18:23;;;;;;;17.33;4.53;;;10.70;92.80;;;;;;5000627;28;20029;-70
2023/10/14 07:21:03;;;;;;;14.13;4.07;;;10.80;92.70;;;;;;4997413;28;20070;-75
2023/10/14 07:23:36;;;;;;;14.75;3.95;;;10.90;92.70;;;;;;4997988;28;20652;-70
2023/10/14 07:26:09;;;;;;;16.08;4.25;;;11.00;92.60;;;;;;4995950;28;20026;-71
2023/10/14 07:28:36;;;;;;;18.38;4.40;;;11.10;92.50;;;;;;4998453;28;20052;-71
2023/10/14 07:31:01;;;;;;;14.85;3.70;;;11.30;92.50;;;;;;5000875;28;20103;-72
2023/10/14 07:33:29;;;;;;;16.35;4.18;;;11.40;92.10;;;;;;4999845;28;20478;-72
2023/10/14 07:35:58;;;;;;;16.85;4.05;;;11.50;91.70;;;;;;4996581;28;20072;-73
2023/10/14 07:38:23;;;;;;;15.25;3.92;;;11.50;91.40;;;;;;4995773;28;20026;-73
2023/10/14 07:40:49;;;;;;;18.92;4.88;;;11.50;91.40;;;;;;5002416;28;20550;-74
2023/10/14 07:43:15;;;;;;;13.35;4.05;;;11.50;91.50;;;;;;5000131;28;20046;-72
2023/10/14 07:45:48;;;;;;;16.50;3.80;;;11.50;91.40;;;;;;4988962;28;20184;-72
2023/10/14 07:48:17;;;;;;;20.02;5.32;;;11.50;91.60;;;;;;4994116;28;20037;-73
2023/10/14 07:50:46;;;;;;;17.85;4.85;;;11.50;91.90;;;;;;4993205;28;20096;-74
2023/10/14 07:53:15;;;;;;;17.58;4.88;;;11.60;92.00;;;;;;4991857;28;20018;-73
2023/10/14 07:55:47;;;;;;;19.30;4.85;;;11.60;91.90;;;;;;4993319;28;20037;-74
2023/10/14 07:58:16;;;;;;;15.27;4.03;;;11.60;91.80;;;;;;4991235;28;20117;-75
2023/10/14 08:00:50;;;;;;;15.15;4.20;;;11.70;91.70;;;;;;5003801;28;20057;-73
2023/10/14 08:03:21;;;;;;;16.17;4.70;;;11.80;91.60;;;;;;4989833;28;20026;-73
2023/10/14 08:05:52;;;;;;;15.10;4.10;;;12.00;91.70;;;;;;4997694;28;20045;-73
2023/10/14 08:08:19;;;;;;;15.32;4.03;;;12.10;91.30;;;;;;5000217;28;20026;-73
2023/10/14 08:10:50;;;;;;;17.83;4.00;;;12.20;91.30;;;;;;5002924;28;20027;-72
2023/10/14 08:13:21;;;;;;;18.15;4.95;;;12.40;91.20;;;;;;5001310;28;20030;-75
2023/10/14 08:15:50;;;;;;;17.95;4.55;;;12.60;90.60;;;;;;4999874;28;20452;-73
2023/10/14 08:18:16;;;;;;;17.77;5.53;;;12.70;90.40;;;;;;5002118;28;20080;-73
2023/10/14 08:20:43;;;;;;;18.42;5.07;;;12.80;89.70;;;;;;4997078;28;20146;-72
2023/10/14 08:23:10;;;;;;;18.10;5.60;;;12.80;88.70;;;;;;4998397;28;20028;-75
2023/10/14 08:25:37;;;;;;;17.45;5.45;;;12.90;88.20;;;;;;4995639;28;20033;-74
2023/10/14 08:28:06;;;;;;;17.40;5.93;;;13.10;88.60;;;;;;5000619;28;20030;-74
2023/10/14 08:30:34;;;;;;;19.90;5.03;;;13.30;87.70;;;;;;4994283;28;20496;-73
2023/10/14 08:33:02;;;;;;;14.98;5.47;;;13.50;87.30;;;;;;4995837;28;20025;-75
2023/10/14 08:35:28;;;;;;;14.32;5.22;;;13.40;87.10;;;;;;5000341;28;20031;-74
2023/10/14 08:37:55;;;;;;;17.63;5.63;;;13.50;85.70;;;;;;5002980;28;20609;-75
2023/10/14 08:40:25;;;;;;;15.55;4.82;;;13.40;86.40;;;;;;4997622;28;20070;-75
2023/10/14 08:43:06;;;;;;;14.77;4.75;;;13.40;85.80;;;;;;4999929;28;20026;-75
2023/10/14 08:45:38;;;;;;;15.73;5.47;;;13.50;86.30;;;;;;4996381;28;20030;-76
2023/10/14 08:48:05;;;;;;;20.60;5.20;;;13.60;85.60;;;;;;4988727;28;20061;-74
2023/10/14 08:50:35;;;;;;;17.30;4.93;;;13.80;85.10;;;;;;4994351;28;20053;-75
2023/10/14 08:53:05;;;;;;;16.17;5.18;;;13.70;85.30;;;;;;4996289;28;20038;-76
2023/10/14 08:55:33;;;;;;;20.15;5.28;;;13.80;85.60;;;;;;4992018;28;20034;-76
2023/10/14 08:58:05;;;;;;;17.52;4.95;;;13.90;85.20;;;;;;4998981;28;20061;-74
2023/10/14 09:00:35;;;;;;;15.98;5.00;;;14.20;85.30;;;;;;4998328;28;20030;-74
2023/10/14 09:03:06;;;;;;;17.52;5.22;;;14.30;84.40;;;;;;4992604;28;20516;-75
2023/10/14 09:05:33;;;;;;;15.65;4.60;;;14.30;84.20;;;;;;4999468;28;20058;-74
2023/10/14 09:07:58;;;;;;;17.90;5.07;;;14.40;84.20;;;;;;5000292;28;20087;-75
2023/10/14 09:10:25;;;;;;;15.48;4.47;;;14.60;82.80;;;;;;5003202;28;20037;-76
2023/10/14 09:12:58;;;;;;;17.70;4.43;;;14.60;82.30;;;;;;4997343;28;20042;-74
2023/10/14 09:15:28;;;;;;;19.33;5.05;;;14.50;82.90;;;;;;4998908;28;20041;-72
2023/10/14 09:17:55;;;;;;;19.02;3.90;;;14.60;81.90;;;;;;5001587;28;20052;-74
2023/10/14 09:20:34;;;;;;;12.20;4.35;;;14.40;82.10;;;;;;4996529;28;20038;-74
2023/10/14 09:23:16;;;;;;;15.00;3.47;;;14.60;82.80;;;;;;5001991;28;20042;-74
2023/10/14 09:25:45;;;;;;;15.10;3.65;;;14.90;80.70;;;;;;4996786;28;20072;-74
2023/10/14 09:28:12;;;;;;;22.40;4.65;;;14.90;80.20;;;;;;5001445;28;20029;-73
2023/10/14 09:30:44;;;;;;;18.92;4.93;;;15.20;79.40;;;;;;5001960;28;21303;-74
2023/10/14 09:33:15;;;;;;;16.52;4.43;;;15.20;78.50;;;;;;5001879;28;20018;-74
2023/10/14 09:35:48;;;;;;;12.43;3.45;;;15.20;79.10;;;;;;4997902;28;20616;-75
2023/10/14 09:38:18;;;;;;;14.93;3.47;;;15.10;78.70;;;;;;5001337;28;20022;-75
2023/10/14 09:40:50;;;;;;;16.08;3.80;;;15.20;79.40;;;;;;5000905;28;20514;-74
2023/10/14 09:43:17;;;;;;;19.13;4.25;;;15.60;77.70;;;;;;4991034;28;20102;-74
2023/10/14 09:45:46;;;;;;;18.20;4.13;;;15.40;77.70;;;;;;4993921;28;20029;-74
2023/10/14 09:48:11;;;;;;;15.18;3.65;;;15.20;77.30;;;;;;4991755;28;20161;-75
2023/10/14 09:50:38;;;;;;;16.30;3.38;;;15.10;78.30;;;;;;4992706;28;20129;-74
2023/10/14 09:53:05;;;;;;;17.35;4.15;;;15.50;77.70;;;;;;4993270;28;20026;-75
2023/10/14 09:55:32;;;;;;;14.43;3.40;;;15.80;77.30;;;;;;4991438;28;20125;-74
2023/10/14 09:58:00;;;;;;;17.27;4.10;;;15.60;76.30;;;;;;4993901;28;20601;-74
2023/10/14 10:00:27;;;;;;;15.30;4.32;;;15.70;76.10;;;;;;4989705;28;20101;-75
2023/10/14 10:02:54;;;;;;;15.32;3.67;;;15.50;75.40;;;;;;4994698;28;20803;-72
2023/10/14 10:05:26;;;;;;;17.65;4.90;;;15.20;74.50;;;;;;4989950;28;20739;-74
2023/10/14 10:08:41;;;;;;;15.35;3.65;;;15.10;76.30;;;;;;4990919;28;20052;-74
2023/10/14 10:11:07;;;;;;;14.65;3.35;;;14.90;76.60;;;;;;4969032;28;20041;-74
2023/10/14 10:13:35;;;;;;;16.17;3.72;;;15.10;76.70;;;;;;4993396;28;20034;-81
2023/10/14 10:16:05;;;;;;;13.60;3.40;;;15.20;76.80;;;;;;4994444;28;20026;-76
2023/10/14 10:18:56;;;;;;;13.55;3.03;;;15.50;74.60;;;;;;4993764;28;20018;-76
2023/10/14 10:21:31;;;;;;;10.40;2.40;;;15.40;73.60;;;;;;4998696;28;20038;-73
2023/10/14 10:24:09;;;;;;;11.27;2.42;;;15.10;70.50;;;;;;4996381;28;20164;-74
2023/10/14 10:26:58;;;;;;;14.70;2.55;;;14.60;70.70;;;;;;5001418;28;20060;-73
2023/10/14 10:29:24;;;;;;;11.00;2.58;;;14.20;71.90;;;;;;5000659;28;20030;-74
2023/10/14 10:32:16;;;;;;;7.47;2.05;;;14.30;73.10;;;;;;5001924;28;20030;-74
2023/10/14 10:35:07;;;;;;;11.63;2.65;;;14.10;73.60;;;;;;4993822;28;20944;-74
2023/10/14 10:37:35;;;;;;;15.05;2.70;;;14.10;74.60;;;;;;4998588;28;20495;-74
2023/10/14 10:40:05;;;;;;;13.18;3.05;;;14.20;75.90;;;;;;4998680;28;20042;-76
2023/10/14 10:42:31;;;;;;;13.43;2.92;;;14.10;76.20;;;;;;4999069;28;20036;-76
2023/10/14 10:44:58;;;;;;;11.38;2.60;;;14.10;74.00;;;;;;4996615;28;20858;-74
2023/10/14 10:47:24;;;;;;;10.57;2.75;;;14.30;74.60;;;;;;4992624;28;20034;-75
2023/10/14 10:50:02;;;;;;;15.25;3.85;;;14.60;75.50;;;;;;4993784;28;20038;-76
2023/10/14 10:52:28;;;;;;;15.13;3.10;;;15.10;76.30;;;;;;4998489;28;20469;-76
2023/10/14 10:54:56;;;;;;;13.25;3.40;;;15.40;75.30;;;;;;4994021;28;20091;-75
2023/10/14 10:57:21;;;;;;;16.48;3.70;;;15.60;73.80;;;;;;4995027;28;20055;-74
2023/10/14 10:59:47;;;;;;;17.33;3.38;;;15.50;73.80;;;;;;4998195;28;20037;-73
2023/10/14 11:02:18;;;;;;;12.77;3.10;;;15.90;72.80;;;;;;4997196;28;20034;-76
2023/10/14 11:04:45;;;;;;;15.73;3.03;;;16.10;71.30;;;;;;4999138;28;20140;-73
2023/10/14 11:07:12;;;;;;;16.48;3.00;;;15.80;70.20;;;;;;5003087;28;20400;-75
2023/10/14 11:09:41;;;;;;;13.05;3.25;;;15.60;70.30;;;;;;4997256;28;20159;-73
2023/10/14 11:12:11;;;;;;;13.88;3.15;;;15.80;71.10;;;;;;4999992;28;20030;-73
2023/10/14 11:14:38;;;;;;;15.25;3.28;;;15.70;72.30;;;;;;4993730;28;20397;-76
2023/10/14 11:17:04;;;;;;;16.95;3.35;;;15.40;70.40;;;;;;4994621;28;20061;-74
2023/10/14 11:19:33;;;;;;;14.00;2.85;;;15.00;73.50;;;;;;5002845;28;20097;-73
2023/10/14 11:22:00;;;;;;;14.20;3.40;;;14.90;74.00;;;;;;5001485;28;20041;-77
2023/10/14 11:24:32;;;;;;;14.15;3.38;;;14.60;74.50;;;;;;4997922;28;20056;-77
2023/10/14 11:26:59;;;;;;;14.82;3.58;;;14.80;74.70;;;;;;5001926;28;20037;-75
2023/10/14 11:29:26;;;;;;;16.15;3.10;;;14.80;74.40;;;;;;5001424;28;20025;-75
2023/10/14 11:31:56;;;;;;;12.75;2.80;;;15.10;74.40;;;;;;5003092;28;20477;-78
2023/10/14 11:34:23;;;;;;;16.52;3.78;;;14.90;74.60;;;;;;4996075;28;20050;-76
2023/10/14 11:36:48;;;;;;;12.75;3.20;;;14.90;75.90;;;;;;5002489;28;20033;-75
2023/10/14 11:39:21;;;;;;;13.07;2.47;;;14.80;75.30;;;;;;4999269;28;20029;-73
2023/10/14 11:41:46;;;;;;;11.57;2.95;;;14.60;75.60;;;;;;5004111;28;20053;-73
2023/10/14 11:44:17;;;;;;;14.18;2.75;;;14.40;75.20;;;;;;4993616;28;20031;-73
2023/10/14 11:46:44;;;;;;;12.02;2.47;;;14.10;75.30;;;;;;4998094;28;20061;-71
2023/10/14 11:49:11;;;;;;;12.10;3.25;;;14.10;74.00;;;;;;5001089;28;20125;-73
2023/10/14 11:51:43;;;;;;;10.68;2.35;;;14.00;73.60;;;;;;5000939;28;20038;-72
2023/10/14 11:54:12;;;;;;;11.65;2.75;;;14.30;72.40;;;;;;5000103;28;20022;-73
2023/10/14 11:56:42;;;;;;;9.95;3.15;;;14.50;73.20;;;;;;4999124;28;20046;-74
2023/10/14 11:59:12;;;;;;;11.18;2.67;;;14.50;73.60;;;;;;5005627;28;20029;-74
2023/10/14 12:01:38;;;;;;;13.98;2.75;;;14.70;72.00;;;;;;4993907;28;20053;-74
2023/10/14 12:04:04;;;;;;;11.25;3.15;;;14.90;72.70;;;;;;4999731;28;20022;-74
2023/10/14 12:06:34;;;;;;;12.77;2.92;;;14.90;73.70;;;;;;4993382;28;20030;-73
2023/10/14 12:09:05;;;;;;;13.48;2.63;;;15.00;73.90;;;;;;5005012;28;20547;-74
2023/10/14 12:11:39;;;;;;;9.60;2.55;;;14.90;76.20;;;;;;5000576;28;20129;-73
2023/10/14 12:14:07;;;;;;;12.35;2.85;;;14.10;76.80;;;;;;4999733;28;20033;-73
2023/10/14 12:16:33;;;;;;;7.68;2.05;;;13.50;80.60;;;;;;4995241;28;20435;-73
2023/10/14 12:18:59;;;;;;;8.98;2.00;;;13.10;79.70;;;;;;5000536;28;20042;-73
2023/10/14 12:21:25;;;;;;;9.98;2.05;;;12.60;82.20;;;;;;4996453;28;20034;-75
2023/10/14 12:23:51;;;;;;;10.88;2.40;;;12.40;82.70;;;;;;4999590;28;20019;-77
2023/10/14 12:26:17;;;;;;;8.82;2.03;;;12.60;82.30;;;;;;5000860;28;20030;-74
2023/10/14 12:28:44;;;;;;;6.72;1.92;;;12.60;82.60;;;;;;5015209;28;20100;-76
2023/10/14 12:31:12;;;;;;;5.10;1.60;;;12.60;79.10;;;;;;4999430;28;20034;-75
2023/10/14 12:33:39;;;;;;;8.18;1.73;;;12.60;77.60;;;;;;4999514;28;20121;-73
2023/10/14 12:36:14;;;;;;;2.72;1.27;;;12.90;80.10;;;;;;4997995;28;20096;-76
2023/10/14 12:38:42;;;;;;;5.05;1.50;;;12.80;77.90;;;;;;4999305;28;20038;-76
2023/10/14 12:41:09;;;;;;;3.75;1.35;;;12.80;77.70;;;;;;4993587;28;20125;-74
2023/10/14 12:43:39;;;;;;;4.18;1.30;;;13.00;78.40;;;;;;4999698;28;20026;-75
2023/10/14 12:46:14;;;;;;;10.35;2.05;;;13.10;78.50;;;;;;4996465;28;20038;-77
2023/10/14 12:48:43;;;;;;;10.10;1.73;;;13.10;78.50;;;;;;4989978;28;20022;-74
2023/10/14 12:51:12;;;;;;;7.97;1.73;;;13.10;79.10;;;;;;4992698;28;20524;-73
2023/10/14 12:53:45;;;;;;;9.10;2.05;;;13.10;80.00;;;;;;4999177;28;20018;-74
2023/10/14 12:56:14;;;;;;;6.43;1.95;;;13.40;79.80;;;;;;4995231;28;20045;-74
2023/10/14 12:58:45;;;;;;;11.18;2.00;;;13.60;79.60;;;;;;4998680;28;20037;-74
2023/10/14 13:01:18;;;;;;;7.25;1.80;;;13.50;77.20;;;;;;4997459;28;21109;-73
2023/10/14 13:03:46;;;;;;;8.75;1.83;;;13.50;76.80;;;;;;4995874;28;20099;-72
2023/10/14 13:06:13;;;;;;;7.93;2.10;;;13.50;77.70;;;;;;4995667;28;20037;-75
2023/10/14 13:08:39;;;;;;;8.35;2.42;;;13.60;77.50;;;;;;5005493;28;20504;-76
2023/10/14 13:11:05;;;;;;;9.98;3.03;;;14.00;78.40;;;;;;4997064;28;20501;-76
2023/10/14 13:13:31;;;;;;;9.90;2.13;;;14.10;77.90;;;;;;4995577;28;20037;-74
2023/10/14 13:15:58;;;;;;;6.75;1.70;;;14.00;75.30;;;;;;4991892;28;20041;-74
2023/10/14 13:18:27;;;;;;;9.55;2.33;;;13.70;74.40;;;;;;4995849;28;20034;-75
2023/10/14 13:20:58;;;;;;;6.93;1.88;;;13.80;75.40;;;;;;4994591;28;20096;-75
2023/10/14 13:23:25;;;;;;;6.60;1.75;;;14.20;76.20;;;;;;5000306;28;20033;-76
2023/10/14 13:25:51;;;;;;;10.65;1.95;;;14.00;76.70;;;;;;4999860;28;20730;-74
2023/10/14 13:28:17;;;;;;;9.65;1.88;;;14.00;77.60;;;;;;4994691;28;20025;-75
2023/10/14 13:30:46;;;;;;;7.60;2.13;;;13.70;76.50;;;;;;4996060;28;20038;-75
2023/10/14 13:33:13;;;;;;;10.45;2.28;;;13.90;77.20;;;;;;5000394;28;20056;-75
2023/10/14 13:35:42;;;;;;;9.52;2.10;;;13.80;77.60;;;;;;4996764;28;20034;-73
2023/10/14 13:38:11;;;;;;;8.88;2.28;;;13.80;80.20;;;;;;4998230;28;20026;-74
2023/10/14 13:40:38;;;;;;;10.02;2.42;;;13.80;79.20;;;;;;4999271;28;20568;-74
2023/10/14 13:43:04;;;;;;;10.18;2.20;;;13.40;79.30;;;;;;4999313;28;20026;-74
2023/10/14 13:45:31;;;;;;;11.68;2.42;;;13.20;80.90;;;;;;5000133;28;20052;-75